Decoded Metar for KPHP (PHILIP in SD, USA) (IATA:PHP) | Meteo·Mobile Aviation Weather
aviador You're here:

KPHP Decoded Metar

PHILIP in SD, USA
Report Time2019-05-19 17:55:00
UTC Time2019-05-19 18:20:27
Flight Rules mvfr MVFR
Wind350° at 15 Gusting to 22 kt
W.Decomp.*RWY 30: 11.7 kt HW 9.4 kt RCW
RWY 05: 4.9 kt HW 14.2 kt LCW
Visibility9999 m
Phenomena:N/A
Clouds:Overcast 017 Hf
Expected CloudBase > 1,200 ft AGL from Temp-Dew spread
Ceiling1,700 ft
Temp06°C (ISA -5)
Dew Point03°C (81% RH)
AAT-0.9°C
QNH1017 hPa
Density Alt1,627 ft
Elevation2,205 ft
Report Wrong Elevation
Raw Report
KPHP 191755Z AUTO 35015G22KT 10SM OVC017 06/03 A3002 RMK AO2
SLP175 60000 T00610033 10067 20033 53004 TSNO=

Extra information for KPHP:More info

Metar Taf Metar & Taf Last 4 Metars F.Rules Stats Wind Profile Meteogram Temp Stats Airport Information Weather charts Add Link Nearby VenuesMetar ALERT Operation Metar Decoded Social comments

AIRNAV info for KPHP